sensor_id;sensor_type;location;lat;lon;timestamp;P1;durP1;ratioP1;P2;durP2;ratioP2
28086;SDS011;15392;48.912;8.380;2024-01-30T00:02:17;1.40;;;1.40;;
28086;SDS011;15392;48.912;8.380;2024-01-30T00:05:03;1.33;;;1.33;;
28086;SDS011;15392;48.912;8.380;2024-01-30T00:07:50;1.42;;;1.42;;
28086;SDS011;15392;48.912;8.380;2024-01-30T00:10:36;1.30;;;1.30;;
28086;SDS011;15392;48.912;8.380;2024-01-30T00:13:22;1.38;;;1.38;;
28086;SDS011;15392;48.912;8.380;2024-01-30T00:16:08;1.30;;;1.30;;
28086;SDS011;15392;48.912;8.380;2024-01-30T00:18:54;1.30;;;1.30;;
28086;SDS011;15392;48.912;8.380;2024-01-30T00:21:40;1.42;;;1.42;;
28086;SDS011;15392;48.912;8.380;2024-01-30T00:24:26;1.50;;;1.50;;
28086;SDS011;15392;48.912;8.380;2024-01-30T00:27:12;1.50;;;1.50;;
28086;SDS011;15392;48.912;8.380;2024-01-30T00:29:58;1.95;;;1.85;;
28086;SDS011;15392;48.912;8.380;2024-01-30T00:32:44;1.50;;;1.50;;
28086;SDS011;15392;48.912;8.380;2024-01-30T00:35:31;1.70;;;1.60;;
28086;SDS011;15392;48.912;8.380;2024-01-30T00:38:17;1.52;;;1.52;;
28086;SDS011;15392;48.912;8.380;2024-01-30T00:41:03;2.00;;;1.90;;
28086;SDS011;15392;48.912;8.380;2024-01-30T00:43:49;1.58;;;1.58;;
28086;SDS011;15392;48.912;8.380;2024-01-30T00:46:35;1.70;;;1.60;;
28086;SDS011;15392;48.912;8.380;2024-01-30T00:49:21;1.90;;;1.80;;
28086;SDS011;15392;48.912;8.380;2024-01-30T00:52:07;1.70;;;1.60;;
28086;SDS011;15392;48.912;8.380;2024-01-30T00:54:53;1.58;;;1.58;;
28086;SDS011;15392;48.912;8.380;2024-01-30T00:57:39;1.60;;;1.58;;
28086;SDS011;15392;48.912;8.380;2024-01-30T01:00:25;1.60;;;1.55;;
28086;SDS011;15392;48.912;8.380;2024-01-30T01:03:14;1.40;;;1.40;;
28086;SDS011;15392;48.912;8.380;2024-01-30T01:06:00;1.70;;;1.70;;
28086;SDS011;15392;48.912;8.380;2024-01-30T01:08:46;1.48;;;1.40;;
28086;SDS011;15392;48.912;8.380;2024-01-30T01:11:32;1.30;;;1.30;;
28086;SDS011;15392;48.912;8.380;2024-01-30T01:14:18;1.33;;;1.33;;
28086;SDS011;15392;48.912;8.380;2024-01-30T01:17:04;1.58;;;1.50;;
28086;SDS011;15392;48.912;8.380;2024-01-30T01:19:50;1.33;;;1.33;;
28086;SDS011;15392;48.912;8.380;2024-01-30T01:22:37;1.35;;;1.35;;
28086;SDS011;15392;48.912;8.380;2024-01-30T01:25:26;1.60;;;1.50;;
28086;SDS011;15392;48.912;8.380;2024-01-30T01:28:12;1.30;;;1.30;;
28086;SDS011;15392;48.912;8.380;2024-01-30T01:30:59;1.00;;;1.00;;
28086;SDS011;15392;48.912;8.380;2024-01-30T01:33:50;2.00;;;1.30;;
28086;SDS011;15392;48.912;8.380;2024-01-30T01:36:36;1.48;;;1.48;;
28086;SDS011;15392;48.912;8.380;2024-01-30T01:39:22;1.10;;;1.10;;
28086;SDS011;15392;48.912;8.380;2024-01-30T01:42:09;1.08;;;1.08;;
28086;SDS011;15392;48.912;8.380;2024-01-30T01:44:55;1.30;;;1.30;;
28086;SDS011;15392;48.912;8.380;2024-01-30T01:47:41;1.33;;;1.23;;
28086;SDS011;15392;48.912;8.380;2024-01-30T01:50:28;1.10;;;1.10;;
28086;SDS011;15392;48.912;8.380;2024-01-30T01:53:14;1.13;;;1.13;;
28086;SDS011;15392;48.912;8.380;2024-01-30T01:56:01;1.10;;;1.10;;
28086;SDS011;15392;48.912;8.380;2024-01-30T01:58:48;1.20;;;1.20;;
28086;SDS011;15392;48.912;8.380;2024-01-30T02:01:36;1.10;;;1.10;;
28086;SDS011;15392;48.912;8.380;2024-01-30T02:04:23;1.10;;;1.10;;
28086;SDS011;15392;48.912;8.380;2024-01-30T02:07:09;1.02;;;1.02;;
28086;SDS011;15392;48.912;8.380;2024-01-30T02:09:56;1.25;;;1.15;;
28086;SDS011;15392;48.912;8.380;2024-01-30T02:12:42;1.20;;;1.20;;
28086;SDS011;15392;48.912;8.380;2024-01-30T02:15:28;1.10;;;1.10;;
28086;SDS011;15392;48.912;8.380;2024-01-30T02:18:14;1.08;;;1.08;;
28086;SDS011;15392;48.912;8.380;2024-01-30T02:21:03;1.15;;;1.15;;
28086;SDS011;15392;48.912;8.380;2024-01-30T02:23:50;1.15;;;1.15;;
28086;SDS011;15392;48.912;8.380;2024-01-30T02:26:38;1.20;;;1.20;;
28086;SDS011;15392;48.912;8.380;2024-01-30T02:29:24;1.38;;;1.38;;
28086;SDS011;15392;48.912;8.380;2024-01-30T02:32:10;0.88;;;0.88;;
28086;SDS011;15392;48.912;8.380;2024-01-30T02:34:56;1.20;;;1.20;;
28086;SDS011;15392;48.912;8.380;2024-01-30T02:37:42;1.08;;;1.08;;
28086;SDS011;15392;48.912;8.380;2024-01-30T02:40:28;1.02;;;1.02;;
28086;SDS011;15392;48.912;8.380;2024-01-30T02:43:15;1.10;;;1.10;;
28086;SDS011;15392;48.912;8.380;2024-01-30T02:46:02;1.10;;;1.10;;
28086;SDS011;15392;48.912;8.380;2024-01-30T02:48:48;1.10;;;1.10;;
28086;SDS011;15392;48.912;8.380;2024-01-30T02:51:34;1.00;;;1.00;;
28086;SDS011;15392;48.912;8.380;2024-01-30T02:54:20;1.02;;;1.02;;
28086;SDS011;15392;48.912;8.380;2024-01-30T02:57:06;1.00;;;1.00;;
28086;SDS011;15392;48.912;8.380;2024-01-30T02:59:52;0.90;;;0.90;;
28086;SDS011;15392;48.912;8.380;2024-01-30T03:02:38;1.00;;;1.00;;
28086;SDS011;15392;48.912;8.380;2024-01-30T03:05:25;0.90;;;0.90;;
28086;SDS011;15392;48.912;8.380;2024-01-30T03:08:11;1.13;;;1.13;;
28086;SDS011;15392;48.912;8.380;2024-01-30T03:10:57;0.95;;;0.95;;
28086;SDS011;15392;48.912;8.380;2024-01-30T03:13:43;0.90;;;0.90;;
28086;SDS011;15392;48.912;8.380;2024-01-30T03:16:29;1.00;;;1.00;;
28086;SDS011;15392;48.912;8.380;2024-01-30T03:19:15;1.05;;;1.05;;
28086;SDS011;15392;48.912;8.380;2024-01-30T03:22:01;0.90;;;0.90;;
28086;SDS011;15392;48.912;8.380;2024-01-30T03:24:47;0.95;;;0.95;;
28086;SDS011;15392;48.912;8.380;2024-01-30T03:27:33;0.95;;;0.95;;
28086;SDS011;15392;48.912;8.380;2024-01-30T03:30:19;1.02;;;1.02;;
28086;SDS011;15392;48.912;8.380;2024-01-30T03:33:05;0.80;;;0.80;;
28086;SDS011;15392;48.912;8.380;2024-01-30T03:35:51;1.00;;;1.00;;
28086;SDS011;15392;48.912;8.380;2024-01-30T03:38:37;0.90;;;0.90;;
28086;SDS011;15392;48.912;8.380;2024-01-30T03:41:23;1.00;;;1.00;;
28086;SDS011;15392;48.912;8.380;2024-01-30T03:44:09;1.17;;;1.17;;
28086;SDS011;15392;48.912;8.380;2024-01-30T03:46:55;1.55;;;1.10;;
28086;SDS011;15392;48.912;8.380;2024-01-30T03:49:41;1.13;;;1.13;;
28086;SDS011;15392;48.912;8.380;2024-01-30T03:52:28;1.05;;;1.05;;
28086;SDS011;15392;48.912;8.380;2024-01-30T03:55:14;1.10;;;1.10;;
28086;SDS011;15392;48.912;8.380;2024-01-30T03:58:00;0.90;;;0.90;;
28086;SDS011;15392;48.912;8.380;2024-01-30T04:00:46;1.08;;;1.08;;
28086;SDS011;15392;48.912;8.380;2024-01-30T04:03:32;1.15;;;1.10;;
28086;SDS011;15392;48.912;8.380;2024-01-30T04:06:18;1.20;;;1.20;;
28086;SDS011;15392;48.912;8.380;2024-01-30T04:09:04;1.30;;;1.27;;
28086;SDS011;15392;48.912;8.380;2024-01-30T04:11:50;1.17;;;1.17;;
28086;SDS011;15392;48.912;8.380;2024-01-30T04:14:37;1.40;;;1.40;;
28086;SDS011;15392;48.912;8.380;2024-01-30T04:17:24;1.40;;;1.40;;
28086;SDS011;15392;48.912;8.380;2024-01-30T04:20:16;1.30;;;1.30;;
28086;SDS011;15392;48.912;8.380;2024-01-30T04:23:02;1.15;;;1.15;;
28086;SDS011;15392;48.912;8.380;2024-01-30T04:25:49;1.20;;;1.20;;
28086;SDS011;15392;48.912;8.380;2024-01-30T04:28:35;1.00;;;1.00;;
28086;SDS011;15392;48.912;8.380;2024-01-30T04:31:21;1.05;;;1.05;;
28086;SDS011;15392;48.912;8.380;2024-01-30T04:34:07;1.25;;;1.25;;
28086;SDS011;15392;48.912;8.380;2024-01-30T04:36:53;1.20;;;1.20;;
28086;SDS011;15392;48.912;8.380;2024-01-30T04:39:39;1.20;;;1.20;;
28086;SDS011;15392;48.912;8.380;2024-01-30T04:42:25;0.90;;;0.90;;
28086;SDS011;15392;48.912;8.380;2024-01-30T04:45:11;0.88;;;0.88;;
28086;SDS011;15392;48.912;8.380;2024-01-30T04:47:57;1.30;;;1.23;;
28086;SDS011;15392;48.912;8.380;2024-01-30T04:50:43;1.35;;;1.10;;
28086;SDS011;15392;48.912;8.380;2024-01-30T04:53:30;1.00;;;1.00;;
28086;SDS011;15392;48.912;8.380;2024-01-30T04:56:16;1.00;;;1.00;;
28086;SDS011;15392;48.912;8.380;2024-01-30T04:59:02;1.10;;;0.98;;
28086;SDS011;15392;48.912;8.380;2024-01-30T05:01:49;0.90;;;0.90;;
28086;SDS011;15392;48.912;8.380;2024-01-30T05:04:35;1.10;;;1.10;;
28086;SDS011;15392;48.912;8.380;2024-01-30T05:07:21;0.98;;;0.98;;
28086;SDS011;15392;48.912;8.380;2024-01-30T05:10:07;0.90;;;0.90;;
28086;SDS011;15392;48.912;8.380;2024-01-30T05:12:54;0.80;;;0.80;;
28086;SDS011;15392;48.912;8.380;2024-01-30T05:15:40;0.93;;;0.93;;
28086;SDS011;15392;48.912;8.380;2024-01-30T05:18:26;0.98;;;0.90;;
28086;SDS011;15392;48.912;8.380;2024-01-30T05:21:12;1.00;;;1.00;;
28086;SDS011;15392;48.912;8.380;2024-01-30T05:23:58;0.70;;;0.70;;
28086;SDS011;15392;48.912;8.380;2024-01-30T05:26:44;0.75;;;0.75;;
28086;SDS011;15392;48.912;8.380;2024-01-30T05:29:30;0.60;;;0.60;;
28086;SDS011;15392;48.912;8.380;2024-01-30T05:32:16;0.77;;;0.77;;
28086;SDS011;15392;48.912;8.380;2024-01-30T05:35:02;0.70;;;0.70;;
28086;SDS011;15392;48.912;8.380;2024-01-30T05:37:49;0.60;;;0.60;;
28086;SDS011;15392;48.912;8.380;2024-01-30T05:40:35;0.88;;;0.77;;
28086;SDS011;15392;48.912;8.380;2024-01-30T05:43:21;0.85;;;0.85;;
28086;SDS011;15392;48.912;8.380;2024-01-30T05:46:07;0.70;;;0.70;;
28086;SDS011;15392;48.912;8.380;2024-01-30T05:48:54;1.48;;;0.77;;
28086;SDS011;15392;48.912;8.380;2024-01-30T05:51:40;0.73;;;0.73;;
28086;SDS011;15392;48.912;8.380;2024-01-30T05:54:26;0.60;;;0.60;;
28086;SDS011;15392;48.912;8.380;2024-01-30T05:57:12;0.70;;;0.70;;
28086;SDS011;15392;48.912;8.380;2024-01-30T05:59:58;0.80;;;0.80;;
28086;SDS011;15392;48.912;8.380;2024-01-30T06:02:44;0.80;;;0.80;;
28086;SDS011;15392;48.912;8.380;2024-01-30T06:05:30;0.82;;;0.82;;
28086;SDS011;15392;48.912;8.380;2024-01-30T06:08:16;0.68;;;0.68;;
28086;SDS011;15392;48.912;8.380;2024-01-30T06:11:03;0.63;;;0.63;;
28086;SDS011;15392;48.912;8.380;2024-01-30T06:13:49;0.80;;;0.80;;
28086;SDS011;15392;48.912;8.380;2024-01-30T06:16:35;0.80;;;0.80;;
28086;SDS011;15392;48.912;8.380;2024-01-30T06:19:21;0.70;;;0.70;;
28086;SDS011;15392;48.912;8.380;2024-01-30T06:22:07;0.70;;;0.70;;
28086;SDS011;15392;48.912;8.380;2024-01-30T06:24:53;1.02;;;1.02;;
28086;SDS011;15392;48.912;8.380;2024-01-30T06:27:39;1.08;;;1.08;;
28086;SDS011;15392;48.912;8.380;2024-01-30T06:30:25;1.17;;;1.17;;
28086;SDS011;15392;48.912;8.380;2024-01-30T06:33:12;1.00;;;1.00;;
28086;SDS011;15392;48.912;8.380;2024-01-30T06:35:59;1.27;;;1.27;;
28086;SDS011;15392;48.912;8.380;2024-01-30T06:38:45;1.48;;;1.40;;
28086;SDS011;15392;48.912;8.380;2024-01-30T06:41:31;1.40;;;1.40;;
28086;SDS011;15392;48.912;8.380;2024-01-30T06:44:17;1.30;;;1.30;;
28086;SDS011;15392;48.912;8.380;2024-01-30T06:47:03;1.60;;;1.50;;
28086;SDS011;15392;48.912;8.380;2024-01-30T06:49:50;1.38;;;1.38;;
28086;SDS011;15392;48.912;8.380;2024-01-30T06:52:35;1.27;;;1.17;;
28086;SDS011;15392;48.912;8.380;2024-01-30T06:55:22;1.17;;;1.17;;
28086;SDS011;15392;48.912;8.380;2024-01-30T06:58:08;1.70;;;1.05;;
28086;SDS011;15392;48.912;8.380;2024-01-30T07:00:54;0.82;;;0.82;;
28086;SDS011;15392;48.912;8.380;2024-01-30T07:03:40;1.00;;;1.00;;
28086;SDS011;15392;48.912;8.380;2024-01-30T07:06:26;1.30;;;1.30;;
28086;SDS011;15392;48.912;8.380;2024-01-30T07:09:12;5.55;;;5.22;;
28086;SDS011;15392;48.912;8.380;2024-01-30T07:11:59;6.85;;;6.38;;
28086;SDS011;15392;48.912;8.380;2024-01-30T07:14:45;5.40;;;5.10;;
28086;SDS011;15392;48.912;8.380;2024-01-30T07:17:31;4.38;;;4.10;;
28086;SDS011;15392;48.912;8.380;2024-01-30T07:20:17;2.70;;;2.60;;
28086;SDS011;15392;48.912;8.380;2024-01-30T07:23:05;2.42;;;2.33;;
28086;SDS011;15392;48.912;8.380;2024-01-30T07:25:51;2.15;;;2.05;;
28086;SDS011;15392;48.912;8.380;2024-01-30T07:28:37;1.85;;;1.75;;
28086;SDS011;15392;48.912;8.380;2024-01-30T07:31:23;1.38;;;1.38;;
28086;SDS011;15392;48.912;8.380;2024-01-30T07:34:09;1.35;;;1.35;;
28086;SDS011;15392;48.912;8.380;2024-01-30T07:36:56;1.75;;;1.67;;
28086;SDS011;15392;48.912;8.380;2024-01-30T07:39:42;1.60;;;1.60;;
28086;SDS011;15392;48.912;8.380;2024-01-30T07:42:28;1.27;;;1.27;;
28086;SDS011;15392;48.912;8.380;2024-01-30T07:45:14;1.23;;;1.23;;
28086;SDS011;15392;48.912;8.380;2024-01-30T07:48:00;1.10;;;1.10;;
28086;SDS011;15392;48.912;8.380;2024-01-30T07:50:46;1.00;;;1.00;;
28086;SDS011;15392;48.912;8.380;2024-01-30T07:53:32;1.55;;;0.98;;
28086;SDS011;15392;48.912;8.380;2024-01-30T07:56:18;0.85;;;0.85;;
28086;SDS011;15392;48.912;8.380;2024-01-30T07:59:04;0.90;;;0.90;;
28086;SDS011;15392;48.912;8.380;2024-01-30T08:01:53;0.75;;;0.75;;
28086;SDS011;15392;48.912;8.380;2024-01-30T08:04:39;0.85;;;0.85;;
28086;SDS011;15392;48.912;8.380;2024-01-30T08:07:25;0.90;;;0.90;;
28086;SDS011;15392;48.912;8.380;2024-01-30T08:10:11;1.02;;;1.02;;
28086;SDS011;15392;48.912;8.380;2024-01-30T08:12:58;0.98;;;0.98;;
28086;SDS011;15392;48.912;8.380;2024-01-30T08:15:44;0.93;;;0.93;;
28086;SDS011;15392;48.912;8.380;2024-01-30T08:18:30;1.23;;;0.90;;
28086;SDS011;15392;48.912;8.380;2024-01-30T08:21:17;1.08;;;1.08;;
28086;SDS011;15392;48.912;8.380;2024-01-30T08:24:05;1.30;;;1.30;;
28086;SDS011;15392;48.912;8.380;2024-01-30T08:26:52;1.70;;;1.60;;
28086;SDS011;15392;48.912;8.380;2024-01-30T08:29:38;1.13;;;1.13;;
28086;SDS011;15392;48.912;8.380;2024-01-30T08:32:24;1.52;;;1.42;;
28086;SDS011;15392;48.912;8.380;2024-01-30T08:35:10;1.13;;;1.13;;
28086;SDS011;15392;48.912;8.380;2024-01-30T08:37:59;1.40;;;1.40;;
28086;SDS011;15392;48.912;8.380;2024-01-30T08:40:45;1.40;;;1.30;;
28086;SDS011;15392;48.912;8.380;2024-01-30T08:43:31;1.35;;;1.35;;
28086;SDS011;15392;48.912;8.380;2024-01-30T08:46:18;1.65;;;1.55;;
28086;SDS011;15392;48.912;8.380;2024-01-30T08:49:04;2.20;;;2.10;;
28086;SDS011;15392;48.912;8.380;2024-01-30T08:51:50;1.65;;;1.65;;
28086;SDS011;15392;48.912;8.380;2024-01-30T08:54:36;2.15;;;2.05;;
28086;SDS011;15392;48.912;8.380;2024-01-30T08:57:22;2.50;;;2.40;;
28086;SDS011;15392;48.912;8.380;2024-01-30T09:00:08;2.20;;;2.10;;
28086;SDS011;15392;48.912;8.380;2024-01-30T09:02:55;2.20;;;2.10;;
28086;SDS011;15392;48.912;8.380;2024-01-30T09:05:41;3.05;;;2.90;;
28086;SDS011;15392;48.912;8.380;2024-01-30T09:08:27;3.45;;;3.35;;
28086;SDS011;15392;48.912;8.380;2024-01-30T09:11:14;3.45;;;3.25;;
28086;SDS011;15392;48.912;8.380;2024-01-30T09:14:00;3.08;;;2.85;;
28086;SDS011;15392;48.912;8.380;2024-01-30T09:16:46;3.30;;;3.10;;
28086;SDS011;15392;48.912;8.380;2024-01-30T09:19:34;3.20;;;3.10;;
28086;SDS011;15392;48.912;8.380;2024-01-30T09:22:20;3.10;;;3.00;;
28086;SDS011;15392;48.912;8.380;2024-01-30T09:25:06;3.22;;;3.13;;
28086;SDS011;15392;48.912;8.380;2024-01-30T09:27:53;2.83;;;2.72;;
28086;SDS011;15392;48.912;8.380;2024-01-30T09:30:39;2.58;;;2.47;;
28086;SDS011;15392;48.912;8.380;2024-01-30T09:33:25;2.55;;;2.45;;
28086;SDS011;15392;48.912;8.380;2024-01-30T09:36:11;2.55;;;2.45;;
28086;SDS011;15392;48.912;8.380;2024-01-30T09:39:00;2.63;;;2.53;;
28086;SDS011;15392;48.912;8.380;2024-01-30T09:41:51;2.75;;;2.60;;
28086;SDS011;15392;48.912;8.380;2024-01-30T09:44:48;2.60;;;2.50;;
28086;SDS011;15392;48.912;8.380;2024-01-30T09:47:41;2.53;;;2.42;;
28086;SDS011;15392;48.912;8.380;2024-01-30T09:50:29;2.55;;;2.45;;
28086;SDS011;15392;48.912;8.380;2024-01-30T09:53:15;2.45;;;2.35;;
28086;SDS011;15392;48.912;8.380;2024-01-30T09:56:02;3.17;;;3.05;;
28086;SDS011;15392;48.912;8.380;2024-01-30T09:58:48;3.90;;;3.70;;
28086;SDS011;15392;48.912;8.380;2024-01-30T10:01:34;3.10;;;3.00;;
28086;SDS011;15392;48.912;8.380;2024-01-30T10:04:21;3.05;;;2.95;;
28086;SDS011;15392;48.912;8.380;2024-01-30T10:07:07;3.08;;;2.97;;
28086;SDS011;15392;48.912;8.380;2024-01-30T10:09:56;2.85;;;2.75;;
28086;SDS011;15392;48.912;8.380;2024-01-30T10:12:42;3.20;;;3.08;;
28086;SDS011;15392;48.912;8.380;2024-01-30T10:15:28;3.10;;;3.00;;
28086;SDS011;15392;48.912;8.380;2024-01-30T10:18:15;3.17;;;3.05;;
28086;SDS011;15392;48.912;8.380;2024-01-30T10:21:01;3.13;;;2.97;;
28086;SDS011;15392;48.912;8.380;2024-01-30T10:23:47;3.00;;;2.83;;
28086;SDS011;15392;48.912;8.380;2024-01-30T10:26:33;2.33;;;2.22;;
28086;SDS011;15392;48.912;8.380;2024-01-30T10:29:19;2.15;;;2.05;;
28086;SDS011;15392;48.912;8.380;2024-01-30T10:32:05;2.13;;;2.03;;
28086;SDS011;15392;48.912;8.380;2024-01-30T10:34:51;2.22;;;2.13;;
28086;SDS011;15392;48.912;8.380;2024-01-30T10:37:38;2.47;;;2.38;;
28086;SDS011;15392;48.912;8.380;2024-01-30T10:40:25;2.20;;;2.10;;
28086;SDS011;15392;48.912;8.380;2024-01-30T10:46:10;2.22;;;2.13;;
28086;SDS011;15392;48.912;8.380;2024-01-30T10:48:59;2.45;;;2.35;;
28086;SDS011;15392;48.912;8.380;2024-01-30T10:51:46;2.03;;;1.92;;
28086;SDS011;15392;48.912;8.380;2024-01-30T10:54:33;2.22;;;2.13;;
28086;SDS011;15392;48.912;8.380;2024-01-30T10:57:22;2.20;;;2.10;;
28086;SDS011;15392;48.912;8.380;2024-01-30T11:00:10;2.55;;;2.40;;
28086;SDS011;15392;48.912;8.380;2024-01-30T11:03:01;1.98;;;1.88;;
28086;SDS011;15392;48.912;8.380;2024-01-30T11:05:53;2.05;;;1.95;;
28086;SDS011;15392;48.912;8.380;2024-01-30T11:08:45;2.20;;;2.10;;
28086;SDS011;15392;48.912;8.380;2024-01-30T11:11:31;2.80;;;2.58;;
28086;SDS011;15392;48.912;8.380;2024-01-30T11:14:25;2.58;;;2.47;;
28086;SDS011;15392;48.912;8.380;2024-01-30T11:17:12;2.80;;;2.70;;
28086;SDS011;15392;48.912;8.380;2024-01-30T11:19:58;3.22;;;3.03;;
28086;SDS011;15392;48.912;8.380;2024-01-30T11:22:53;2.42;;;2.33;;
28086;SDS011;15392;48.912;8.380;2024-01-30T11:25:43;2.58;;;2.47;;
28086;SDS011;15392;48.912;8.380;2024-01-30T11:28:32;2.35;;;2.15;;
28086;SDS011;15392;48.912;8.380;2024-01-30T11:31:23;2.25;;;2.15;;
28086;SDS011;15392;48.912;8.380;2024-01-30T11:34:10;2.25;;;2.15;;
28086;SDS011;15392;48.912;8.380;2024-01-30T11:36:57;2.40;;;2.28;;
28086;SDS011;15392;48.912;8.380;2024-01-30T11:39:55;1.90;;;1.80;;
28086;SDS011;15392;48.912;8.380;2024-01-30T11:42:44;2.08;;;1.98;;
28086;SDS011;15392;48.912;8.380;2024-01-30T11:45:36;2.40;;;2.30;;
28086;SDS011;15392;48.912;8.380;2024-01-30T11:48:23;2.17;;;2.08;;
28086;SDS011;15392;48.912;8.380;2024-01-30T11:51:14;2.10;;;2.00;;
28086;SDS011;15392;48.912;8.380;2024-01-30T11:54:04;1.92;;;1.83;;
28086;SDS011;15392;48.912;8.380;2024-01-30T11:56:54;1.92;;;1.83;;
28086;SDS011;15392;48.912;8.380;2024-01-30T11:59:40;2.50;;;2.40;;
28086;SDS011;15392;48.912;8.380;2024-01-30T12:02:28;2.00;;;1.90;;
28086;SDS011;15392;48.912;8.380;2024-01-30T12:05:15;1.92;;;1.83;;
28086;SDS011;15392;48.912;8.380;2024-01-30T12:08:01;2.08;;;1.98;;
28086;SDS011;15392;48.912;8.380;2024-01-30T12:10:55;2.33;;;2.22;;
28086;SDS011;15392;48.912;8.380;2024-01-30T12:13:44;2.30;;;2.20;;
28086;SDS011;15392;48.912;8.380;2024-01-30T12:16:30;2.08;;;1.98;;
28086;SDS011;15392;48.912;8.380;2024-01-30T12:19:26;2.42;;;2.33;;
28086;SDS011;15392;48.912;8.380;2024-01-30T12:22:12;2.45;;;2.35;;
28086;SDS011;15392;48.912;8.380;2024-01-30T12:24:58;2.50;;;2.40;;
28086;SDS011;15392;48.912;8.380;2024-01-30T12:27:45;2.20;;;2.10;;
28086;SDS011;15392;48.912;8.380;2024-01-30T12:30:36;2.38;;;2.28;;
28086;SDS011;15392;48.912;8.380;2024-01-30T12:33:24;2.30;;;2.20;;
28086;SDS011;15392;48.912;8.380;2024-01-30T12:36:12;3.10;;;3.00;;
28086;SDS011;15392;48.912;8.380;2024-01-30T12:38:58;2.85;;;2.75;;
28086;SDS011;15392;48.912;8.380;2024-01-30T12:41:44;2.35;;;2.25;;
28086;SDS011;15392;48.912;8.380;2024-01-30T12:44:30;2.08;;;1.98;;
28086;SDS011;15392;48.912;8.380;2024-01-30T12:47:17;2.40;;;2.30;;
28086;SDS011;15392;48.912;8.380;2024-01-30T12:50:03;2.10;;;2.00;;
28086;SDS011;15392;48.912;8.380;2024-01-30T12:52:50;2.30;;;2.10;;
28086;SDS011;15392;48.912;8.380;2024-01-30T12:55:36;2.40;;;2.30;;
28086;SDS011;15392;48.912;8.380;2024-01-30T12:58:22;2.83;;;2.72;;
28086;SDS011;15392;48.912;8.380;2024-01-30T13:01:08;2.40;;;2.30;;
28086;SDS011;15392;48.912;8.380;2024-01-30T13:03:58;2.40;;;2.30;;
28086;SDS011;15392;48.912;8.380;2024-01-30T13:06:44;2.50;;;2.40;;
28086;SDS011;15392;48.912;8.380;2024-01-30T13:09:30;2.75;;;2.65;;
28086;SDS011;15392;48.912;8.380;2024-01-30T13:12:17;2.70;;;2.60;;
28086;SDS011;15392;48.912;8.380;2024-01-30T13:15:03;2.60;;;2.50;;
28086;SDS011;15392;48.912;8.380;2024-01-30T13:17:50;2.97;;;2.78;;
28086;SDS011;15392;48.912;8.380;2024-01-30T13:20:42;2.80;;;2.70;;
28086;SDS011;15392;48.912;8.380;2024-01-30T13:23:28;2.35;;;2.25;;
28086;SDS011;15392;48.912;8.380;2024-01-30T13:26:14;2.90;;;2.70;;
28086;SDS011;15392;48.912;8.380;2024-01-30T13:29:00;2.70;;;2.60;;
28086;SDS011;15392;48.912;8.380;2024-01-30T13:31:46;3.08;;;2.95;;
28086;SDS011;15392;48.912;8.380;2024-01-30T13:34:32;3.22;;;3.08;;
28086;SDS011;15392;48.912;8.380;2024-01-30T13:37:18;4.07;;;3.63;;
28086;SDS011;15392;48.912;8.380;2024-01-30T13:40:05;4.00;;;3.80;;
28086;SDS011;15392;48.912;8.380;2024-01-30T13:42:52;3.72;;;3.53;;
28086;SDS011;15392;48.912;8.380;2024-01-30T13:45:38;3.47;;;3.28;;
28086;SDS011;15392;48.912;8.380;2024-01-30T13:48:27;3.13;;;3.03;;
28086;SDS011;15392;48.912;8.380;2024-01-30T13:51:15;3.08;;;2.88;;
28086;SDS011;15392;48.912;8.380;2024-01-30T13:54:02;2.70;;;2.60;;
28086;SDS011;15392;48.912;8.380;2024-01-30T13:56:48;3.38;;;3.13;;
28086;SDS011;15392;48.912;8.380;2024-01-30T13:59:37;3.50;;;3.35;;
28086;SDS011;15392;48.912;8.380;2024-01-30T14:02:24;3.22;;;3.08;;
28086;SDS011;15392;48.912;8.380;2024-01-30T14:05:10;4.07;;;3.88;;
28086;SDS011;15392;48.912;8.380;2024-01-30T14:07:56;3.45;;;3.25;;
28086;SDS011;15392;48.912;8.380;2024-01-30T14:10:43;2.85;;;2.75;;
28086;SDS011;15392;48.912;8.380;2024-01-30T14:13:29;3.53;;;3.33;;
28086;SDS011;15392;48.912;8.380;2024-01-30T14:16:16;3.25;;;3.05;;
28086;SDS011;15392;48.912;8.380;2024-01-30T14:19:02;3.08;;;2.88;;
28086;SDS011;15392;48.912;8.380;2024-01-30T14:21:48;3.15;;;3.00;;
28086;SDS011;15392;48.912;8.380;2024-01-30T14:24:34;4.03;;;3.78;;
28086;SDS011;15392;48.912;8.380;2024-01-30T14:27:22;4.22;;;3.92;;
28086;SDS011;15392;48.912;8.380;2024-01-30T14:30:10;4.60;;;4.30;;
28086;SDS011;15392;48.912;8.380;2024-01-30T14:32:56;4.55;;;4.25;;
28086;SDS011;15392;48.912;8.380;2024-01-30T14:35:42;4.55;;;4.25;;
28086;SDS011;15392;48.912;8.380;2024-01-30T14:38:28;3.80;;;3.60;;
28086;SDS011;15392;48.912;8.380;2024-01-30T14:41:15;3.70;;;3.40;;
28086;SDS011;15392;48.912;8.380;2024-01-30T14:44:01;3.10;;;2.92;;
28086;SDS011;15392;48.912;8.380;2024-01-30T14:46:49;3.00;;;2.90;;
28086;SDS011;15392;48.912;8.380;2024-01-30T14:49:36;2.53;;;2.42;;
28086;SDS011;15392;48.912;8.380;2024-01-30T14:52:22;2.70;;;2.60;;
28086;SDS011;15392;48.912;8.380;2024-01-30T14:55:08;2.40;;;2.30;;
28086;SDS011;15392;48.912;8.380;2024-01-30T14:57:54;2.45;;;2.35;;
28086;SDS011;15392;48.912;8.380;2024-01-30T15:00:41;2.58;;;2.47;;
28086;SDS011;15392;48.912;8.380;2024-01-30T15:03:28;2.45;;;2.35;;
28086;SDS011;15392;48.912;8.380;2024-01-30T15:06:14;2.40;;;2.30;;
28086;SDS011;15392;48.912;8.380;2024-01-30T15:09:00;2.55;;;2.40;;
28086;SDS011;15392;48.912;8.380;2024-01-30T15:11:46;2.58;;;2.47;;
28086;SDS011;15392;48.912;8.380;2024-01-30T15:14:32;2.28;;;2.17;;
28086;SDS011;15392;48.912;8.380;2024-01-30T15:17:19;2.08;;;1.98;;
28086;SDS011;15392;48.912;8.380;2024-01-30T15:20:06;2.70;;;2.50;;
28086;SDS011;15392;48.912;8.380;2024-01-30T15:22:53;2.70;;;2.60;;
28086;SDS011;15392;48.912;8.380;2024-01-30T15:25:39;2.85;;;2.75;;
28086;SDS011;15392;48.912;8.380;2024-01-30T15:28:36;3.55;;;3.35;;
28086;SDS011;15392;48.912;8.380;2024-01-30T15:31:23;3.40;;;3.22;;
28086;SDS011;15392;48.912;8.380;2024-01-30T15:34:09;3.45;;;3.25;;
28086;SDS011;15392;48.912;8.380;2024-01-30T15:36:55;3.50;;;3.30;;
28086;SDS011;15392;48.912;8.380;2024-01-30T15:39:41;3.17;;;3.08;;
28086;SDS011;15392;48.912;8.380;2024-01-30T15:42:28;4.43;;;4.18;;
28086;SDS011;15392;48.912;8.380;2024-01-30T15:45:14;3.88;;;3.67;;
28086;SDS011;15392;48.912;8.380;2024-01-30T15:48:00;4.43;;;4.22;;
28086;SDS011;15392;48.912;8.380;2024-01-30T15:50:46;5.07;;;4.80;;
28086;SDS011;15392;48.912;8.380;2024-01-30T15:53:32;4.40;;;4.10;;
28086;SDS011;15392;48.912;8.380;2024-01-30T15:56:22;3.40;;;3.30;;
28086;SDS011;15392;48.912;8.380;2024-01-30T15:59:08;2.88;;;2.78;;
28086;SDS011;15392;48.912;8.380;2024-01-30T16:01:55;2.42;;;2.33;;
28086;SDS011;15392;48.912;8.380;2024-01-30T16:04:41;2.53;;;2.40;;
28086;SDS011;15392;48.912;8.380;2024-01-30T16:07:27;2.00;;;1.90;;
28086;SDS011;15392;48.912;8.380;2024-01-30T16:10:13;1.98;;;1.88;;
28086;SDS011;15392;48.912;8.380;2024-01-30T16:13:01;1.88;;;1.77;;
28086;SDS011;15392;48.912;8.380;2024-01-30T16:15:48;1.60;;;1.50;;
28086;SDS011;15392;48.912;8.380;2024-01-30T16:18:34;1.70;;;1.60;;
28086;SDS011;15392;48.912;8.380;2024-01-30T16:21:21;1.55;;;1.48;;
28086;SDS011;15392;48.912;8.380;2024-01-30T16:24:08;1.98;;;1.88;;
28086;SDS011;15392;48.912;8.380;2024-01-30T16:26:54;2.45;;;2.35;;
28086;SDS011;15392;48.912;8.380;2024-01-30T16:29:40;2.08;;;1.98;;
28086;SDS011;15392;48.912;8.380;2024-01-30T16:32:26;2.33;;;2.22;;
28086;SDS011;15392;48.912;8.380;2024-01-30T16:35:16;2.40;;;2.30;;
28086;SDS011;15392;48.912;8.380;2024-01-30T16:38:02;2.15;;;2.05;;
28086;SDS011;15392;48.912;8.380;2024-01-30T16:40:48;2.22;;;2.13;;
28086;SDS011;15392;48.912;8.380;2024-01-30T16:43:36;2.47;;;2.38;;
28086;SDS011;15392;48.912;8.380;2024-01-30T16:46:22;2.90;;;2.78;;
28086;SDS011;15392;48.912;8.380;2024-01-30T16:49:08;2.90;;;2.70;;